Time;durP1;ratioP1;P1;durP2;ratioP2;P2;SDS_P1;SDS_P2;PMS_P1;PMS_P2;Temp;Humidity;BMP_temperature;BMP_pressure;BME280_temperature;BME280_humidity;BME280_pressure;Samples;Min_cycle;Max_cycle;Signal;HPM_P1;HPM_P2
2022/12/15 00:40:39;;;;;;;21.65;7.60;;;;;;;-8.56;100.00;100963.38;5019136;28;20084;-77
2022/12/15 00:43:05;;;;;;;11.00;5.65;;;;;;;-8.50;100.00;100965.75;5000341;28;20056;-77
2022/12/15 00:48:15;;;;;;;17.33;9.73;;;;;;;-8.36;100.00;100967.91;5019052;28;20467;-77
2022/12/15 00:50:53;;;;;;;14.52;6.82;;;;;;;-8.40;100.00;100966.31;5016567;28;20160;-76
2022/12/15 01:21:00;;;;;;;5.22;3.97;;;;;;;-8.72;100.00;100969.97;5046308;28;20075;-76
2022/12/15 01:23:25;;;;;;;13.52;6.90;;;;;;;-8.76;100.00;100976.16;5015691;28;20071;-76
2022/12/15 01:25:52;;;;;;;15.32;7.50;;;;;;;-8.87;100.00;100969.53;5016063;28;20033;-76
2022/12/15 01:28:19;;;;;;;12.20;8.10;;;;;;;-9.00;100.00;100972.56;5031970;28;20021;-77
2022/12/15 01:30:45;;;;;;;13.27;8.82;;;;;;;-9.06;100.00;100978.81;5000026;28;20088;-76
2022/12/15 01:33:11;;;;;;;14.85;8.75;;;;;;;-9.05;100.00;100980.50;5032277;28;20049;-76
2022/12/15 01:35:37;;;;;;;11.75;6.75;;;;;;;-9.08;100.00;100978.00;5031899;28;20030;-76
2022/12/15 01:38:03;;;;;;;17.65;10.23;;;;;;;-9.17;100.00;100957.44;5015999;28;20037;-76
2022/12/15 01:40:44;;;;;;;24.65;8.25;;;;;;;-9.11;100.00;100963.31;5033300;28;20487;-77
2022/12/15 01:43:14;;;;;;;14.43;8.90;;;;;;;-9.14;100.00;100963.41;5034379;28;20030;-76
2022/12/15 01:45:47;;;;;;;20.13;10.50;;;;;;;-9.09;100.00;100982.38;5015652;28;20434;-77
2022/12/15 01:48:18;;;;;;;11.23;6.97;;;;;;;-9.18;100.00;100973.97;5015865;28;20128;-77
2022/12/15 01:50:49;;;;;;;13.30;8.13;;;;;;;-9.16;100.00;100970.41;4999739;28;20041;-76
2022/12/15 01:53:15;;;;;;;10.13;6.30;;;;;;;-9.04;100.00;100964.00;4999876;28;20124;-76
2022/12/15 01:55:42;;;;;;;13.02;8.07;;;;;;;-8.95;100.00;100971.53;4999375;28;20083;-76
2022/12/15 01:58:09;;;;;;;5.63;5.13;;;;;;;-9.05;100.00;100980.50;5015297;28;20029;-76
2022/12/15 02:00:35;;;;;;;18.42;7.22;;;;;;;-9.01;100.00;100982.13;5015561;28;20030;-75
2022/12/15 02:03:01;;;;;;;13.88;6.25;;;;;;;-8.98;100.00;100971.63;5032157;28;20060;-75
2022/12/15 02:05:28;;;;;;;16.92;7.53;;;;;;;-8.86;100.00;100979.06;4999352;28;20037;-75
2022/12/15 02:07:54;;;;;;;8.73;6.40;;;;;;;-8.81;100.00;100983.28;4999091;28;20040;-76
2022/12/15 02:10:20;;;;;;;17.30;8.85;;;;;;;-8.91;100.00;100973.16;5048595;28;20108;-76
2022/12/15 02:12:51;;;;;;;5.80;3.97;;;;;;;-8.94;100.00;100972.41;5015793;28;20107;-76
2022/12/15 02:15:28;;;;;;;6.65;5.45;;;;;;;-8.72;100.00;100985.59;5015564;28;20029;-77
2022/12/15 02:18:07;;;;;;;15.82;7.15;;;;;;;-8.64;100.00;100981.00;4999329;28;20040;-76
2022/12/15 02:20:59;;;;;;;10.18;5.25;;;;;;;-8.72;100.00;100986.47;5015238;28;20112;-76
2022/12/15 02:23:56;;;;;;;10.07;6.32;;;;;;;-8.67;100.00;100988.94;5015458;28;20037;-76
2022/12/15 02:26:52;;;;;;;9.63;6.20;;;;;;;-8.79;100.00;100986.69;5015657;28;20072;-77
2022/12/15 02:29:36;;;;;;;8.68;5.20;;;;;;;-8.94;100.00;100983.66;5032824;28;20061;-76
2022/12/15 02:32:07;;;;;;;8.10;4.63;;;;;;;-9.03;100.00;100981.31;5019174;28;20083;-76
2022/12/15 02:35:05;;;;;;;12.20;4.63;;;;;;;-9.05;100.00;100985.72;5003486;28;20095;-76
2022/12/15 02:37:36;;;;;;;7.93;4.63;;;;;;;-9.05;100.00;100992.69;5018980;28;20029;-76
2022/12/15 02:40:05;;;;;;;7.65;5.05;;;;;;;-8.94;100.00;101004.50;5035404;28;20033;-76
2022/12/15 02:42:31;;;;;;;7.03;4.95;;;;;;;-8.90;100.00;101003.50;5018911;28;20542;-76
2022/12/15 02:45:01;;;;;;;7.20;5.20;;;;;;;-8.92;100.00;101015.72;5018768;28;20119;-76
2022/12/15 02:47:57;;;;;;;8.88;6.05;;;;;;;-9.06;100.00;100997.06;5018532;28;20049;-76
2022/12/15 02:50:42;;;;;;;13.10;6.22;;;;;;;-9.16;100.00;100990.41;5003676;28;20045;-76
2022/12/15 02:53:45;;;;;;;12.77;6.70;;;;;;;-9.24;100.00;100989.78;5068563;28;20049;-76
2022/12/15 02:56:42;;;;;;;8.20;4.10;;;;;;;-9.17;100.00;101005.19;5018621;28;20040;-75
2022/12/15 02:59:39;;;;;;;2.30;1.92;;;;;;;-9.14;100.00;100999.88;5018704;28;20107;-76
2022/12/15 03:02:07;;;;;;;13.68;4.90;;;;;;;-9.10;100.00;101001.50;5017899;28;20037;-76
2022/12/15 03:04:36;;;;;;;2.53;2.38;;;;;;;-9.10;100.00;101004.13;5001964;28;20494;-77
2022/12/15 03:07:04;;;;;;;6.03;4.70;;;;;;;-8.99;100.00;101006.41;5018707;28;20058;-76
2022/12/15 03:09:30;;;;;;;14.52;6.85;;;;;;;-9.00;100.00;101002.06;5002255;28;20044;-76
2022/12/15 03:11:56;;;;;;;13.23;5.38;;;;;;;-9.03;100.00;100996.09;5018227;28;20056;-76
2022/12/15 03:14:24;;;;;;;6.95;3.10;;;;;;;-9.06;100.00;100999.66;5002168;28;20081;-77
2022/12/15 03:16:50;;;;;;;13.00;5.28;;;;;;;-9.08;100.00;100991.03;5001983;28;20498;-76
2022/12/15 03:19:16;;;;;;;5.25;4.07;;;;;;;-8.99;100.00;101002.94;5018296;28;20032;-76
2022/12/15 03:21:42;;;;;;;8.43;4.60;;;;;;;-9.06;100.00;100997.06;5018161;28;20037;-76
2022/12/15 03:24:08;;;;;;;7.05;4.63;;;;;;;-9.09;100.00;100989.34;5017929;28;20083;-76
2022/12/15 03:26:33;;;;;;;7.22;5.18;;;;;;;-9.16;100.00;100977.38;5001829;28;20029;-76
2022/12/15 03:28:59;;;;;;;11.80;6.13;;;;;;;-9.10;100.00;101001.50;5034342;28;20029;-77
2022/12/15 03:31:25;;;;;;;1.70;1.33;;;;;;;-9.42;100.00;100952.97;5001745;28;20033;-76
2022/12/15 03:33:51;;;;;;;11.25;6.45;;;;;;;-9.15;100.00;100992.97;5001641;28;20037;-76
2022/12/15 03:36:17;;;;;;;10.65;5.65;;;;;;;-9.23;100.00;100992.34;5034199;28;20037;-77
2022/12/15 03:38:42;;;;;;;4.38;3.47;;;;;;;-9.23;100.00;100994.06;5017681;28;20040;-76
2022/12/15 03:41:08;;;;;;;6.68;5.05;;;;;;;-9.23;100.00;100986.25;5032823;28;20040;-76
2022/12/15 03:43:34;;;;;;;8.70;5.00;;;;;;;-9.30;100.00;100978.63;5001571;28;20037;-76
2022/12/15 03:45:59;;;;;;;11.18;4.63;;;;;;;-9.24;100.00;100989.78;5001498;28;20127;-76
2022/12/15 03:48:26;;;;;;;5.28;3.40;;;;;;;-9.28;100.00;100980.34;5001521;28;20114;-77
2022/12/15 03:50:52;;;;;;;6.50;3.38;;;;;;;-9.32;100.00;100988.22;5001398;28;20033;-75
2022/12/15 03:53:17;;;;;;;7.40;4.47;;;;;;;-9.36;100.00;100984.03;5001338;28;20037;-76
2022/12/15 03:55:43;;;;;;;5.95;3.45;;;;;;;-9.27;100.00;100987.25;5017553;28;20032;-76
2022/12/15 03:58:08;;;;;;;5.75;3.67;;;;;;;-9.24;100.00;100982.81;5000974;28;20037;-76
2022/12/15 04:00:34;;;;;;;8.25;5.22;;;;;;;-9.19;100.00;100983.53;5017608;28;20029;-76
2022/12/15 04:03:00;;;;;;;5.20;4.05;;;;;;;-9.15;100.00;100972.13;5001330;28;20091;-77
2022/12/15 04:05:32;;;;;;;7.47;4.43;;;;;;;-9.10;100.00;100977.22;5017536;28;20112;-76
2022/12/15 04:07:59;;;;;;;9.38;4.40;;;;;;;-9.10;100.00;100988.47;5033836;28;20038;-77
2022/12/15 04:10:26;;;;;;;5.78;4.65;;;;;;;-9.21;100.00;100984.47;5001020;28;20039;-76
2022/12/15 04:12:57;;;;;;;4.15;3.13;;;;;;;-9.30;100.00;100989.06;5000976;28;20049;-76
2022/12/15 04:15:23;;;;;;;5.38;3.65;;;;;;;-9.27;100.00;100987.25;5050099;28;20104;-76
2022/12/15 04:17:49;;;;;;;4.63;3.08;;;;;;;-9.14;100.00;100984.25;5000854;28;20045;-76
2022/12/15 04:20:14;;;;;;;6.82;3.38;;;;;;;-9.09;100.00;100981.50;5000964;28;20080;-76
2022/12/15 04:22:46;;;;;;;1.92;1.77;;;;;;;-9.07;100.00;100983.19;5000815;28;20361;-76
2022/12/15 05:33:56;;;;;;;5.40;4.10;;;;;;;-9.07;100.00;101001.41;5018608;28;20025;-76
2022/12/15 05:36:22;;;;;;;5.00;2.60;;;;;;;-9.09;100.00;101004.97;5032239;28;20044;-76
2022/12/15 05:38:52;;;;;;;8.93;3.88;;;;;;;-9.18;100.00;101003.47;4999454;28;20033;-76
2022/12/15 05:41:19;;;;;;;7.43;3.97;;;;;;;-9.17;100.00;101007.78;4999226;28;20046;-76
2022/12/15 05:43:45;;;;;;;10.15;5.70;;;;;;;-9.26;100.00;101005.47;4999676;28;20120;-76
2022/12/15 05:46:11;;;;;;;8.90;6.38;;;;;;;-9.37;100.00;101013.53;5016118;28;20033;-76
2022/12/15 05:48:37;;;;;;;11.48;6.40;;;;;;;-9.36;100.00;101015.28;5048784;28;20052;-76
2022/12/15 05:51:04;;;;;;;1.90;1.70;;;;;;;-9.28;100.00;101012.47;4999621;28;20034;-76
2022/12/15 05:53:30;;;;;;;11.57;6.25;;;;;;;-9.12;100.00;101012.88;4999672;28;20033;-76
2022/12/15 05:56:08;;;;;;;10.70;4.47;;;;;;;-9.12;100.00;101018.94;5015657;28;20064;-76
2022/12/15 05:58:34;;;;;;;7.78;4.40;;;;;;;-9.04;100.00;101017.84;5031923;28;20051;-75
2022/12/15 06:01:10;;;;;;;5.97;5.45;;;;;;;-9.03;100.00;101023.00;4999456;28;20477;-75
2022/12/15 06:03:37;;;;;;;8.93;4.85;;;;;;;-9.00;100.00;101014.25;5015881;28;20483;-76
2022/12/15 06:06:04;;;;;;;5.80;3.83;;;;;;;-9.08;100.00;101012.72;5019471;28;20037;-76
2022/12/15 06:08:32;;;;;;;12.13;6.15;;;;;;;-9.04;100.00;101007.44;5035792;28;20071;-76
2022/12/15 06:10:58;;;;;;;11.05;5.47;;;;;;;-9.13;100.00;101012.03;5019219;28;20041;-76
2022/12/15 06:13:26;;;;;;;4.57;3.75;;;;;;;-9.18;100.00;101018.22;5019478;28;20048;-76
2022/12/15 06:16:00;;;;;;;5.45;3.55;;;;;;;-9.20;100.00;101020.91;5019203;28;20412;-76
2022/12/15 06:18:29;;;;;;;1.70;1.58;;;;;;;-9.29;100.00;101018.53;5019253;28;20028;-77
2022/12/15 06:21:02;;;;;;;10.95;3.17;;;;;;;-9.27;100.00;101015.91;5018945;28;20117;-76
2022/12/15 06:23:29;;;;;;;5.35;3.17;;;;;;;-9.21;100.00;101019.19;5003093;28;20033;-75
2022/12/15 06:25:55;;;;;;;8.95;4.28;;;;;;;-9.28;100.00;101011.59;5002954;28;20057;-76
2022/12/15 06:28:25;;;;;;;5.20;3.47;;;;;;;-9.28;100.00;101014.22;5003076;28;20029;-76
2022/12/15 06:30:52;;;;;;;5.93;3.30;;;;;;;-9.26;100.00;101017.59;5019116;28;20446;-75
2022/12/15 06:33:19;;;;;;;4.05;2.08;;;;;;;-9.26;100.00;101015.00;5019058;28;20044;-76
2022/12/15 06:35:44;;;;;;;4.68;2.83;;;;;;;-9.22;100.00;101017.47;5051985;28;20526;-76
2022/12/15 06:38:11;;;;;;;6.35;3.47;;;;;;;-9.21;100.00;101020.94;5002951;28;20034;-76
2022/12/15 06:40:40;;;;;;;5.30;3.00;;;;;;;-9.27;100.00;101018.50;5002513;28;20048;-76
2022/12/15 06:43:07;;;;;;;7.32;2.42;;;;;;;-9.35;100.00;101021.31;5003619;28;20037;-76
2022/12/15 06:45:33;;;;;;;6.00;3.00;;;;;;;-9.30;100.00;101020.31;5019086;28;20047;-76
2022/12/15 06:47:59;;;;;;;5.78;3.17;;;;;;;-9.22;100.00;101021.84;5002605;28;20030;-76
2022/12/15 06:50:25;;;;;;;6.75;2.85;;;;;;;-9.14;100.00;101025.94;5002622;28;20036;-76
2022/12/15 06:52:51;;;;;;;6.38;3.58;;;;;;;-9.00;100.00;101025.50;5002611;28;20037;-77
2022/12/15 06:55:17;;;;;;;6.40;2.88;;;;;;;-8.99;100.00;101026.41;5002429;28;20114;-76
2022/12/15 06:57:46;;;;;;;6.07;3.47;;;;;;;-8.96;100.00;101028.91;5002456;28;20034;-75
2022/12/15 07:00:14;;;;;;;8.00;4.65;;;;;;;-8.92;100.00;101031.34;5018669;28;20073;-76
2022/12/15 07:02:41;;;;;;;5.53;3.67;;;;;;;-8.91;100.00;101037.44;5034605;28;20033;-77
2022/12/15 07:05:08;;;;;;;10.88;4.72;;;;;;;-8.91;100.00;101043.50;5002414;28;20025;-76
2022/12/15 07:07:33;;;;;;;4.18;2.80;;;;;;;-8.85;100.00;101037.25;5001971;28;20029;-76
2022/12/15 07:10:01;;;;;;;4.88;2.70;;;;;;;-8.78;100.00;101043.16;5051376;28;20029;-76
2022/12/15 07:12:27;;;;;;;7.35;4.65;;;;;;;-8.71;100.00;101044.66;5018265;28;20037;-76
2022/12/15 07:14:53;;;;;;;8.45;4.80;;;;;;;-8.72;100.00;101040.34;5018222;28;20037;-76
2022/12/15 07:17:18;;;;;;;4.97;3.05;;;;;;;-8.85;100.00;101043.31;5001764;28;20022;-76
2022/12/15 07:19:44;;;;;;;5.65;4.10;;;;;;;-8.94;100.00;101032.31;5001248;28;20075;-76
2022/12/15 07:22:10;;;;;;;12.80;4.55;;;;;;;-8.98;100.00;101030.69;5034485;28;20116;-75
2022/12/15 07:24:36;;;;;;;4.80;3.50;;;;;;;-8.99;100.00;101032.44;5001982;28;20475;-76
2022/12/15 07:27:01;;;;;;;6.50;4.78;;;;;;;-8.95;100.00;101030.59;5001859;28;20038;-77
2022/12/15 07:29:27;;;;;;;8.05;4.75;;;;;;;-8.98;100.00;101030.69;5001532;28;20029;-76
2022/12/15 07:31:53;;;;;;;12.60;4.95;;;;;;;-9.08;100.00;101028.34;5001806;28;20052;-76
2022/12/15 07:34:18;;;;;;;1.85;0.75;;;;;;;-9.14;100.00;101031.13;5001767;28;20037;-76
2022/12/15 07:36:44;;;;;;;6.28;3.85;;;;;;;-9.09;100.00;101041.44;5034174;28;20104;-76
2022/12/15 07:39:10;;;;;;;6.70;3.45;;;;;;;-9.08;100.00;101035.31;5001526;28;20049;-77
2022/12/15 07:41:39;;;;;;;1.33;1.25;;;;;;;-9.11;100.00;101033.66;5017758;28;20099;-76
2022/12/15 07:44:06;;;;;;;12.75;3.85;;;;;;;-9.10;100.00;101037.97;5017928;28;20041;-74
2022/12/15 07:46:32;;;;;;;7.47;4.07;;;;;;;-9.10;100.00;101031.91;5017776;28;20087;-76
2022/12/15 07:48:58;;;;;;;1.10;1.10;;;;;;;-9.15;100.00;101033.81;5001241;28;20383;-76
2022/12/15 07:51:24;;;;;;;2.53;1.88;;;;;;;-9.21;100.00;101031.34;5001284;28;20421;-76
2022/12/15 07:53:50;;;;;;;9.35;4.40;;;;;;;-9.18;100.00;101028.66;5001260;28;20120;-76
2022/12/15 07:56:16;;;;;;;5.93;2.92;;;;;;;-9.18;100.00;101029.53;5001125;28;20064;-76
2022/12/15 07:58:42;;;;;;;7.38;3.28;;;;;;;-9.22;100.00;101040.91;5017469;28;20032;-76
2022/12/15 08:01:11;;;;;;;6.57;3.13;;;;;;;-9.27;100.00;101054.97;5001222;28;20042;-75
2022/12/15 08:03:36;;;;;;;6.75;4.30;;;;;;;-9.27;100.00;101047.16;5033966;28;20375;-73
2022/12/15 08:06:10;;;;;;;9.65;4.90;;;;;;;-9.15;100.00;101049.44;5017393;28;20026;-76
2022/12/15 08:08:36;;;;;;;9.35;5.35;;;;;;;-8.98;100.00;101061.97;5000998;28;20486;-76
2022/12/15 08:11:07;;;;;;;18.08;7.05;;;;;;;-8.89;100.00;101072.09;5000982;28;20029;-76
2022/12/15 08:13:33;;;;;;;14.50;6.38;;;;;;;-8.82;100.00;101073.63;5000994;28;20040;-76
2022/12/15 08:15:59;;;;;;;14.07;7.53;;;;;;;-8.92;100.00;101067.84;5000587;28;20032;-76
2022/12/15 08:18:25;;;;;;;14.70;6.00;;;;;;;-9.00;100.00;101071.56;5017195;28;20387;-76
2022/12/15 08:20:51;;;;;;;7.10;5.78;;;;;;;-9.09;100.00;101078.75;5000541;28;20129;-76
2022/12/15 08:23:17;;;;;;;9.10;4.60;;;;;;;-9.11;100.00;101085.75;5016985;28;20553;-76
2022/12/15 08:25:42;;;;;;;8.13;4.82;;;;;;;-9.14;100.00;101085.84;5017205;28;20460;-76
2022/12/15 08:28:08;;;;;;;6.43;4.72;;;;;;;-9.20;100.00;101083.41;5000183;28;20480;-76
2022/12/15 08:30:36;;;;;;;25.60;10.65;;;;;;;-9.06;100.00;101096.03;5016970;28;20045;-76
2022/12/15 08:33:02;;;;;;;15.40;6.15;;;;;;;-8.78;100.00;101090.91;5000533;28;20527;-76
2022/12/15 08:35:28;;;;;;;10.07;5.97;;;;;;;-8.52;100.00;101097.09;5016688;28;20155;-75
2022/12/15 08:37:54;;;;;;;9.45;5.07;;;;;;;-8.49;100.00;101094.41;5000525;28;20086;-76
2022/12/15 08:40:22;;;;;;;4.32;2.63;;;;;;;-8.41;100.00;101106.31;5032806;28;20108;-75
2022/12/15 08:42:48;;;;;;;6.55;3.22;;;;;;;-7.39;100.00;101092.53;5016371;28;20079;-76
2022/12/15 08:45:13;;;;;;;3.20;1.95;;;;;;;-6.05;100.00;101099.72;5000225;28;20029;-75
2022/12/15 08:47:39;;;;;;;2.70;1.55;;;;;;;-4.91;100.00;101107.97;5000374;28;20128;-75
2022/12/15 08:50:08;;;;;;;5.78;2.30;;;;;;;-4.23;100.00;101111.00;5032671;28;20447;-75
2022/12/15 08:52:34;;;;;;;5.95;2.50;;;;;;;-3.92;100.00;101109.50;5016175;28;20087;-76
2022/12/15 08:54:59;;;;;;;7.68;2.38;;;;;;;-3.73;100.00;101099.81;5000250;28;20037;-76
2022/12/15 08:57:26;;;;;;;5.03;2.47;;;;;;;-3.49;100.00;101115.25;5000018;28;20103;-76
2022/12/15 08:59:51;;;;;;;3.05;2.17;;;;;;;-3.19;100.00;101107.63;5032720;28;20439;-76
2022/12/15 09:02:17;;;;;;;1.67;1.50;;;;;;;-3.14;100.00;101108.22;5000161;28;20041;-75
2022/12/15 09:04:44;;;;;;;6.22;3.20;;;;;;;-3.40;100.00;101114.81;5000038;28;20037;-75
2022/12/15 09:07:10;;;;;;;7.55;2.72;;;;;;;-3.79;100.00;101118.50;5016254;28;20036;-76
2022/12/15 09:09:36;;;;;;;3.78;2.20;;;;;;;-4.07;100.00;101125.09;5016405;28;20077;-75
2022/12/15 09:12:01;;;;;;;7.45;2.83;;;;;;;-4.34;100.00;101126.38;4999905;28;20038;-76
2022/12/15 09:14:27;;;;;;;3.28;1.73;;;;;;;-4.51;100.00;101129.78;5000073;28;20041;-76
2022/12/15 09:16:53;;;;;;;10.48;3.17;;;;;;;-4.63;100.00;101118.09;5015666;28;20021;-76
2022/12/15 09:19:21;;;;;;;4.75;1.92;;;;;;;-4.60;100.00;101117.94;4999501;28;20037;-76
2022/12/15 09:21:47;;;;;;;3.35;1.73;;;;;;;-4.52;100.00;101123.69;4999150;28;20037;-77
2022/12/15 09:24:13;;;;;;;3.78;2.20;;;;;;;-4.57;100.00;101114.34;5048753;28;20026;-77
2022/12/15 09:26:39;;;;;;;8.82;3.47;;;;;;;-4.51;100.00;101138.50;4999796;28;20365;-77
2022/12/15 09:29:05;;;;;;;6.78;2.97;;;;;;;-4.49;100.00;101139.31;5015978;28;20403;-77
2022/12/15 09:31:36;;;;;;;13.02;7.43;;;;;;;-4.46;100.00;101133.91;5032507;28;20030;-77
2022/12/15 09:34:02;;;;;;;10.40;5.35;;;;;;;-4.44;100.00;101141.72;5032237;28;20030;-77
2022/12/15 09:36:31;;;;;;;3.83;3.42;;;;;;;-4.52;100.00;101147.31;5032182;28;20048;-76
2022/12/15 09:38:57;;;;;;;19.27;8.95;;;;;;;-4.37;100.00;101153.63;5032372;28;20021;-76
2022/12/15 09:41:29;;;;;;;6.50;5.05;;;;;;;-4.09;100.00;101149.72;5003721;28;20136;-76
2022/12/15 09:44:02;;;;;;;9.73;4.90;;;;;;;-4.11;100.00;101144.53;5019984;28;20071;-76
2022/12/15 09:47:05;;;;;;;10.87;6.10;;;;;;;-3.92;100.00;101151.53;5003257;28;20041;-76
2022/12/15 09:49:37;;;;;;;9.15;5.57;;;;;;;-3.57;100.00;101166.47;5019901;28;20086;-76
2022/12/15 09:52:06;;;;;;;11.02;5.65;;;;;;;-3.25;100.00;101137.72;5019278;28;20026;-78
2022/12/15 09:54:33;;;;;;;10.85;6.32;;;;;;;-3.01;100.00;101154.03;5003657;28;20040;-76
2022/12/15 09:57:07;;;;;;;32.50;14.35;;;;;;;-2.48;100.00;101150.34;5019480;28;20021;-77
2022/12/15 09:59:35;;;;;;;17.80;9.63;;;;;;;-2.49;100.00;101150.41;5035998;28;20026;-78
2022/12/15 10:02:21;;;;;;;21.90;11.27;;;;;;;-2.35;100.00;101140.00;5036088;28;20045;-77
2022/12/15 10:04:54;;;;;;;14.27;7.85;;;;;;;-2.09;100.00;101146.47;5019654;28;20033;-77
2022/12/15 10:07:31;;;;;;;14.30;7.47;;;;;;;-1.77;100.00;101144.66;5035489;28;20026;-76
2022/12/15 10:09:57;;;;;;;19.30;9.02;;;;;;;-1.57;100.00;101150.56;5001829;28;20036;-76
2022/12/15 10:12:30;;;;;;;9.07;4.95;;;;;;;-0.51;100.00;101144.25;5049983;28;20116;-76
2022/12/15 10:15:30;;;;;;;12.23;7.23;;;;;;;1.19;97.54;101149.00;5017069;28;20041;-76
2022/12/15 10:18:03;;;;;;;14.15;7.28;;;;;;;2.11;93.70;101149.56;5005793;28;20336;-77
2022/12/15 10:20:30;;;;;;;20.20;9.27;;;;;;;2.86;91.86;101157.28;5017269;28;20533;-77
2022/12/15 10:23:04;;;;;;;13.52;7.78;;;;;;;3.44;89.43;101170.53;5000526;28;20065;-77
2022/12/15 10:25:30;;;;;;;17.30;8.73;;;;;;;3.64;86.25;101166.34;5002970;28;20420;-77
2022/12/15 10:28:14;;;;;;;9.70;5.75;;;;;;;3.90;85.12;101175.75;5035667;28;20037;-76
2022/12/15 10:30:55;;;;;;;12.02;5.05;;;;;;;3.94;85.94;101144.41;5019218;28;20030;-76
2022/12/15 10:33:26;;;;;;;11.25;5.53;;;;;;;3.95;87.37;101164.75;5019192;28;20037;-76
2022/12/15 10:35:53;;;;;;;13.40;5.28;;;;;;;4.18;88.06;101170.84;5003058;28;20479;-75
2022/12/15 10:38:36;;;;;;;10.18;5.35;;;;;;;4.10;85.98;101133.38;5036417;28;20467;-78
2022/12/15 10:41:04;;;;;;;17.52;7.20;;;;;;;3.86;86.64;101168.97;5002714;28;20037;-76
2022/12/15 10:43:35;;;;;;;13.43;6.85;;;;;;;3.53;88.04;101170.69;5018768;28;20067;-78
2022/12/15 10:46:18;;;;;;;7.85;4.70;;;;;;;3.99;87.81;101174.16;5018856;28;20550;-75
2022/12/15 10:48:53;;;;;;;13.90;6.63;;;;;;;3.67;90.33;101168.75;5034861;28;20033;-75
2022/12/15 10:51:20;;;;;;;15.45;7.35;;;;;;;3.32;91.41;101163.53;5034627;28;20116;-75
2022/12/15 10:53:49;;;;;;;12.65;8.63;;;;;;;2.80;95.81;101163.88;5018719;28;20091;-75
2022/12/15 10:56:25;;;;;;;10.70;5.65;;;;;;;2.80;96.11;101163.03;5035251;28;20044;-75
2022/12/15 10:58:53;;;;;;;8.57;4.55;;;;;;;3.30;93.37;101174.28;5002379;28;20049;-75
2022/12/15 11:01:27;;;;;;;12.90;5.40;;;;;;;3.37;93.02;101172.84;5034669;28;20052;-75
2022/12/15 11:03:53;;;;;;;10.07;6.03;;;;;;;3.35;95.02;101171.28;5018608;28;20116;-75
2022/12/15 11:06:21;;;;;;;17.05;5.75;;;;;;;3.94;92.12;101176.34;5051183;28;20033;-76
2022/12/15 11:08:49;;;;;;;14.05;5.38;;;;;;;4.23;90.44;101165.16;5002039;28;20032;-76
2022/12/15 11:14:22;;;;;;;12.20;7.03;;;;;;;4.12;91.81;101168.69;5034745;28;20061;-75
2022/12/15 11:16:54;;;;;;;11.50;6.50;;;;;;;3.95;94.26;101168.25;5034635;28;20056;-79
2022/12/15 11:20:10;;;;;;;10.57;5.72;;;;;;;3.82;92.91;101166.69;5034241;28;20041;-76
2022/12/15 11:22:43;;;;;;;9.05;4.90;;;;;;;3.87;90.62;101170.69;5050737;28;20030;-76
2022/12/15 11:25:32;;;;;;;6.05;4.35;;;;;;;2.69;98.74;101157.69;5018182;28;20041;-76
2022/12/15 11:28:00;;;;;;;6.13;4.20;;;;;;;2.48;100.00;101170.75;5034539;28;20079;-75
2022/12/15 11:30:32;;;;;;;9.57;5.07;;;;;;;2.14;100.00;101158.19;5034571;28;20045;-76
2022/12/15 11:32:59;;;;;;;12.80;5.15;;;;;;;2.41;100.00;101159.75;5017969;28;20483;-75
2022/12/15 11:35:56;;;;;;;9.95;5.03;;;;;;;2.73;100.00;101165.34;5001577;28;20033;-76
2022/12/15 11:38:29;;;;;;;31.95;14.40;;;;;;;2.99;98.33;101166.03;5035465;28;20061;-75
2022/12/15 11:40:55;;;;;;;;;;;;;;;2.88;99.83;101163.31;5034505;28;20029;-75
2022/12/15 11:43:42;;;;;;;12.02;5.38;;;;;;;2.76;100.00;101156.28;5050665;28;19912;-76
2022/12/15 11:46:24;;;;;;;7.43;4.13;;;;;;;2.70;100.00;101146.97;5033823;28;20084;-76
2022/12/15 11:49:17;;;;;;;12.18;5.90;;;;;;;2.03;100.00;101141.34;5034084;28;20022;-76
2022/12/15 11:52:02;;;;;;;12.15;6.30;;;;;;;2.70;100.00;101151.41;5017802;28;20034;-76
2022/12/15 11:54:54;;;;;;;17.40;7.70;;;;;;;3.08;100.00;101152.03;5017731;28;20502;-76
2022/12/15 11:57:29;;;;;;;15.65;7.78;;;;;;;2.26;100.00;101147.63;5050344;28;20033;-78
2022/12/15 12:00:03;;;;;;;11.32;5.70;;;;;;;2.42;100.00;101143.72;5034789;28;20447;-78
2022/12/15 12:02:54;;;;;;;6.15;3.88;;;;;;;2.99;100.00;101150.09;5016705;28;20467;-76
2022/12/15 12:05:30;;;;;;;6.93;3.30;;;;;;;1.65;100.00;101148.44;5017444;28;20037;-75
2022/12/15 12:08:09;;;;;;;8.63;4.07;;;;;;;1.82;100.00;101146.38;5017164;28;20029;-76
2022/12/15 12:11:12;;;;;;;6.55;2.90;;;;;;;3.25;100.00;101153.38;5017388;28;20033;-77
2022/12/15 12:13:59;;;;;;;8.95;4.25;;;;;;;3.95;98.55;101157.59;5033795;28;20041;-75
2022/12/15 12:16:40;;;;;;;11.93;4.88;;;;;;;4.43;95.46;101151.09;5033527;28;20036;-76
2022/12/15 12:19:12;;;;;;;8.32;3.35;;;;;;;4.76;91.42;101144.78;5033759;28;20061;-76
2022/12/15 12:21:49;;;;;;;9.15;5.80;;;;;;;4.33;94.21;101158.97;5016673;28;20033;-76
2022/12/15 12:24:52;;;;;;;56.42;19.17;;;;;;;4.60;92.52;101152.34;5016892;28;20025;-76
2022/12/15 12:27:26;;;;;;;7.70;3.85;;;;;;;5.26;89.01;101155.59;5015398;28;20435;-75
2022/12/15 12:29:57;;;;;;;7.57;3.80;;;;;;;5.11;88.72;101140.06;5034004;28;20040;-75
2022/12/15 12:32:28;;;;;;;10.93;4.30;;;;;;;5.39;88.53;101146.56;5001017;28;20029;-75
2022/12/15 12:35:16;;;;;;;9.63;5.40;;;;;;;5.88;86.29;101142.28;5000693;28;20086;-79
2022/12/15 12:37:47;;;;;;;9.95;5.00;;;;;;;6.03;85.04;101138.25;5016596;28;20034;-77
2022/12/15 12:40:34;;;;;;;8.38;4.25;;;;;;;6.94;82.16;101143.38;5032833;28;20040;-77
2022/12/15 12:42:59;;;;;;;6.30;3.75;;;;;;;7.82;77.66;101123.38;5033225;28;20075;-78
2022/12/15 12:45:47;;;;;;;10.20;4.63;;;;;;;8.45;75.97;101133.31;5033127;28;20026;-78
2022/12/15 12:48:40;;;;;;;9.52;4.72;;;;;;;9.09;73.58;101128.63;5016313;28;20064;-77
2022/12/15 12:51:25;;;;;;;13.60;6.28;;;;;;;9.48;73.68;101122.00;5013562;28;20049;-77
2022/12/15 12:53:51;;;;;;;14.55;8.57;;;;;;;9.86;73.34;101109.91;5033749;28;20052;-78
2022/12/15 12:56:39;;;;;;;18.70;10.93;;;;;;;10.34;73.30;101124.50;5032813;28;20100;-77
2022/12/15 12:59:27;;;;;;;15.65;7.63;;;;;;;10.56;71.76;101121.19;5032547;28;20029;-76
2022/12/15 13:02:19;;;;;;;10.38;5.57;;;;;;;10.90;73.07;101119.31;5033737;28;20420;-77
2022/12/15 13:05:17;;;;;;;43.08;18.30;;;;;;;10.95;71.49;101111.59;5023282;28;20042;-77
2022/12/15 13:07:53;;;;;;;21.20;11.55;;;;;;;11.08;71.40;101116.47;5032472;28;20399;-77
2022/12/15 13:10:21;;;;;;;12.30;8.07;;;;;;;11.10;71.97;101120.66;5032664;28;20034;-77
2022/12/15 13:12:51;;;;;;;7.03;4.50;;;;;;;11.08;71.22;101113.75;5048940;28;20033;-77
2022/12/15 13:15:26;;;;;;;8.27;4.80;;;;;;;11.14;71.36;101111.25;5016384;28;20037;-76
2022/12/15 13:17:55;;;;;;;9.07;5.15;;;;;;;11.09;71.38;101115.47;5016207;28;20087;-77
2022/12/15 13:20:37;;;;;;;10.50;6.20;;;;;;;11.12;72.79;101113.25;5000311;28;20041;-77
2022/12/15 13:23:21;;;;;;;18.10;11.10;;;;;;;11.41;73.43;101096.53;5032503;28;20044;-77
2022/12/15 13:25:52;;;;;;;21.00;10.52;;;;;;;11.76;74.02;101107.84;5033574;28;20029;-77
2022/12/15 13:28:35;;;;;;;18.50;12.00;;;;;;;12.12;74.58;101110.06;5033389;28;20261;-78
2022/12/15 13:31:19;;;;;;;19.73;9.27;;;;;;;12.45;72.34;101117.94;5032642;28;20029;-77
2022/12/15 13:33:48;;;;;;;15.90;7.07;;;;;;;12.47;73.04;101119.44;5032443;28;20044;-77
2022/12/15 13:36:35;;;;;;;11.75;6.20;;;;;;;12.67;72.79;101114.38;5033207;28;20116;-78
2022/12/15 13:39:03;;;;;;;12.57;6.97;;;;;;;12.77;73.07;101111.47;5032131;28;20040;-77
2022/12/15 13:41:28;;;;;;;11.50;6.28;;;;;;;12.98;72.94;101118.88;4999571;28;20049;-78
2022/12/15 13:43:56;;;;;;;15.82;11.20;;;;;;;12.98;71.84;101118.88;5031887;28;20034;-77
2022/12/15 13:46:36;;;;;;;15.85;8.55;;;;;;;12.81;71.98;101093.03;5031931;28;20040;-78
2022/12/15 13:49:24;;;;;;;13.77;8.30;;;;;;;13.04;73.06;101120.81;5029324;28;20049;-77
2022/12/15 13:51:49;;;;;;;16.17;10.55;;;;;;;12.98;72.17;101113.47;5015616;28;20064;-77
2022/12/15 13:54:15;;;;;;;33.58;15.65;;;;;;;12.62;71.31;101116.81;5015938;28;20033;-77
2022/12/15 13:57:00;;;;;;;8.77;5.95;;;;;;;12.29;71.67;101125.13;5032134;28;20499;-77
2022/12/15 13:59:32;;;;;;;14.88;6.40;;;;;;;12.15;72.22;101119.66;4999456;28;20033;-78